createdAt,value
2023-05-19T00:01:01.482Z,102143.88
2023-05-19T00:03:31.401Z,102138.34
2023-05-19T00:06:01.263Z,102135.19
2023-05-19T00:08:32.479Z,102137.72
2023-05-19T00:11:01.207Z,102141.91
2023-05-19T00:16:00.629Z,102147.44
2023-05-19T00:18:29.873Z,102142.19
2023-05-19T00:20:57.900Z,102137.97
2023-05-19T00:23:25.991Z,102140.38
2023-05-19T00:25:54.098Z,102138.41
2023-05-19T00:28:22.224Z,102145.44
2023-05-19T00:30:50.117Z,102136.84
2023-05-19T00:33:19.549Z,102131.84
2023-05-19T00:35:47.447Z,102137.88
2023-05-19T00:38:15.465Z,102135.88
2023-05-19T00:40:44.209Z,102131.38
2023-05-19T00:43:13.265Z,102136.78
2023-05-19T00:45:41.889Z,102123.59
2023-05-19T00:48:10.355Z,102132.69
2023-05-19T00:50:40.180Z,102123.59
2023-05-19T00:53:08.532Z,102125.72
2023-05-19T00:55:40.748Z,102123.22
2023-05-19T00:58:11.867Z,102119.88
2023-05-19T01:00:40.595Z,102125.16
2023-05-19T01:03:11.637Z,102121.56
2023-05-19T01:05:44.769Z,102121.81
2023-05-19T01:08:13.267Z,102122.63
2023-05-19T01:10:42.233Z,102113.97
2023-05-19T01:13:10.514Z,102125.00
2023-05-19T01:15:48.534Z,102116.16
2023-05-19T01:18:26.086Z,102119.19
2023-05-19T01:21:36.508Z,102120.91
2023-05-19T01:24:24.283Z,102121.25
2023-05-19T01:27:19.869Z,102121.28
2023-05-19T01:30:11.852Z,102125.28
2023-05-19T01:32:42.513Z,102122.78
2023-05-19T01:35:13.891Z,102119.94
2023-05-19T01:37:43.146Z,102122.47
2023-05-19T01:40:11.784Z,102118.50
2023-05-19T01:42:41.862Z,102121.50
2023-05-19T01:45:13.573Z,102126.03
2023-05-19T01:47:44.117Z,102127.59
2023-05-19T01:50:12.407Z,102125.50
2023-05-19T01:52:40.867Z,102123.22
2023-05-19T01:55:10.780Z,102130.41
2023-05-19T01:57:48.612Z,102132.34
2023-05-19T02:00:31.375Z,102135.47
2023-05-19T02:03:12.717Z,102136.34
2023-05-19T02:05:53.812Z,102131.72
2023-05-19T02:08:28.655Z,102131.09
2023-05-19T02:11:04.401Z,102131.38
2023-05-19T02:13:37.994Z,102123.91
2023-05-19T02:16:09.313Z,102125.41
2023-05-19T02:18:38.044Z,102122.47
2023-05-19T02:21:13.277Z,102130.66
2023-05-19T02:23:42.143Z,102130.50
2023-05-19T02:26:10.404Z,102124.47
2023-05-19T02:28:38.484Z,102129.56
2023-05-19T02:31:10.067Z,102130.31
2023-05-19T02:33:38.314Z,102126.00
2023-05-19T02:36:07.168Z,102121.63
2023-05-19T02:38:36.290Z,102117.50
2023-05-19T02:41:04.492Z,102121.69
2023-05-19T02:43:32.509Z,102115.66
2023-05-19T02:46:00.913Z,102114.56
2023-05-19T02:48:30.754Z,102125.25
2023-05-19T02:50:59.070Z,102115.41
2023-05-19T02:53:26.992Z,102111.28
2023-05-19T02:55:55.050Z,102113.91
2023-05-19T02:58:23.034Z,102108.94
2023-05-19T03:00:51.671Z,102111.88
2023-05-19T03:03:20.086Z,102108.72
2023-05-19T03:05:49.999Z,102104.97
2023-05-19T03:08:18.009Z,102113.63
2023-05-19T03:10:47.198Z,102106.59
2023-05-19T03:13:17.227Z,102108.94
2023-05-19T03:15:46.195Z,102114.91
2023-05-19T03:18:15.611Z,102108.84
2023-05-19T03:20:44.911Z,102107.25
2023-05-19T03:23:14.707Z,102113.00
2023-05-19T03:25:43.037Z,102100.13
2023-05-19T03:28:11.782Z,102101.31
2023-05-19T03:30:41.573Z,102099.31
2023-05-19T03:33:14.833Z,102107.72
2023-05-19T03:35:44.728Z,102107.97
2023-05-19T03:38:15.003Z,102108.47
2023-05-19T03:40:50.600Z,102100.38
2023-05-19T03:43:18.927Z,102101.22
2023-05-19T03:45:53.075Z,102101.19
2023-05-19T03:48:39.566Z,102100.50
2023-05-19T03:51:28.741Z,102115.41
2023-05-19T03:54:07.027Z,102106.91
2023-05-19T03:56:37.366Z,102107.34
2023-05-19T03:59:10.791Z,102103.72
2023-05-19T04:01:47.942Z,102107.47
2023-05-19T04:04:16.163Z,102116.88
2023-05-19T04:06:46.969Z,102108.16
2023-05-19T04:09:17.369Z,102106.44
2023-05-19T04:11:48.531Z,102107.81
2023-05-19T04:14:16.954Z,102102.47
2023-05-19T04:16:45.074Z,102095.78
2023-05-19T04:19:13.222Z,102108.72
2023-05-19T04:21:41.178Z,102115.41
2023-05-19T04:24:09.592Z,102112.69
2023-05-19T04:26:42.536Z,102115.91
2023-05-19T04:29:10.922Z,102115.16
2023-05-19T04:31:41.142Z,102115.50
2023-05-19T04:34:10.193Z,102120.44
2023-05-19T04:36:39.227Z,102115.84
2023-05-19T04:39:10.148Z,102115.50
2023-05-19T04:41:44.481Z,102118.75
2023-05-19T04:44:13.967Z,102119.25
2023-05-19T04:46:45.513Z,102121.88
2023-05-19T04:49:14.714Z,102124.44
2023-05-19T04:51:43.399Z,102130.22
2023-05-19T04:54:12.996Z,102125.50
2023-05-19T04:56:43.746Z,102120.63
2023-05-19T04:59:12.716Z,102122.00
2023-05-19T05:01:43.334Z,102120.72
2023-05-19T05:04:15.361Z,102122.97
2023-05-19T05:06:48.897Z,102117.81
2023-05-19T05:09:17.501Z,102126.31
2023-05-19T05:11:48.137Z,102126.03
2023-05-19T05:14:17.041Z,102130.75
2023-05-19T05:16:46.052Z,102129.31
2023-05-19T05:19:19.917Z,102124.25
2023-05-19T05:21:54.695Z,102117.41
2023-05-19T05:24:23.787Z,102125.41
2023-05-19T05:26:59.017Z,102119.91
2023-05-19T05:29:27.672Z,102119.53
2023-05-19T05:31:56.978Z,102121.25
2023-05-19T05:34:26.380Z,102111.81
2023-05-19T05:36:54.973Z,102118.56
2023-05-19T05:39:23.895Z,102109.53
2023-05-19T05:41:52.182Z,102107.72
2023-05-19T05:44:22.991Z,102105.38
2023-05-19T05:46:52.598Z,102105.19
2023-05-19T05:49:21.790Z,102114.31
2023-05-19T05:52:05.105Z,102106.41
2023-05-19T05:54:40.711Z,102112.31
2023-05-19T05:57:10.993Z,102108.75
2023-05-19T05:59:41.917Z,102119.66
2023-05-19T06:02:10.542Z,102118.34
2023-05-19T06:07:51.435Z,102119.38
2023-05-19T06:10:25.095Z,102124.69
2023-05-19T06:16:15.275Z,102125.28
2023-05-19T06:18:47.126Z,102124.09
2023-05-19T06:21:18.026Z,102126.66
2023-05-19T06:23:47.660Z,102119.19
2023-05-19T06:26:16.004Z,102117.75
2023-05-19T06:28:47.867Z,102116.34
2023-05-19T06:31:24.333Z,102129.34
2023-05-19T06:33:55.904Z,102116.75
2023-05-19T06:36:24.427Z,102115.22
2023-05-19T06:38:57.185Z,102109.50
2023-05-19T06:41:26.564Z,102119.84
2023-05-19T06:43:55.666Z,102115.50
2023-05-19T06:46:24.172Z,102122.31
2023-05-19T06:48:53.652Z,102109.41
2023-05-19T06:51:25.134Z,102117.09
2023-05-19T06:54:00.332Z,102112.69
2023-05-19T06:56:29.444Z,102118.16
2023-05-19T06:58:57.863Z,102107.19
2023-05-19T07:01:32.308Z,102109.09
2023-05-19T07:04:01.094Z,102115.97
2023-05-19T07:06:29.343Z,102101.56
2023-05-19T07:08:58.680Z,102107.34
2023-05-19T07:11:27.361Z,102109.06
2023-05-19T07:13:55.445Z,102106.25
2023-05-19T07:16:28.433Z,102116.16
2023-05-19T07:18:57.071Z,102104.34
2023-05-19T07:21:25.122Z,102119.22
2023-05-19T07:23:53.028Z,102108.78
2023-05-19T07:26:22.709Z,102101.72
2023-05-19T07:28:51.927Z,102093.22
2023-05-19T07:31:23.331Z,102102.47
2023-05-19T07:33:53.741Z,102094.25
2023-05-19T07:36:22.690Z,102094.50
2023-05-19T07:38:51.075Z,102090.56
2023-05-19T07:41:19.142Z,102097.09
2023-05-19T07:43:48.637Z,102089.75
2023-05-19T07:46:16.796Z,102092.28
2023-05-19T07:48:44.981Z,102089.69
2023-05-19T07:51:13.615Z,102092.31
2023-05-19T07:53:41.448Z,102085.13
2023-05-19T07:56:09.435Z,102081.06
2023-05-19T07:58:37.785Z,102085.06
2023-05-19T08:01:07.690Z,102082.69
2023-05-19T08:03:35.904Z,102076.50
2023-05-19T08:06:04.490Z,102070.44
2023-05-19T08:08:33.459Z,102078.06
2023-05-19T08:11:04.505Z,102076.81
2023-05-19T08:13:32.654Z,102081.16
2023-05-19T08:16:00.897Z,102072.50
2023-05-19T08:18:30.510Z,102082.19
2023-05-19T08:20:58.543Z,102084.88
2023-05-19T08:23:26.717Z,102070.59
2023-05-19T08:25:54.784Z,102074.09
2023-05-19T08:28:22.974Z,102077.53
2023-05-19T08:30:52.273Z,102072.34
2023-05-19T08:33:21.440Z,102080.50
2023-05-19T08:35:51.486Z,102069.81
2023-05-19T08:38:19.609Z,102067.75
2023-05-19T08:40:48.493Z,102066.13
2023-05-19T08:43:16.471Z,102066.75
2023-05-19T08:45:46.669Z,102061.94
2023-05-19T08:48:15.899Z,102060.16
2023-05-19T08:50:51.545Z,102055.38
2023-05-19T08:56:10.089Z,102057.09
2023-05-19T08:58:41.321Z,102052.63
2023-05-19T09:01:09.701Z,102044.00
2023-05-19T09:03:39.267Z,102055.25
2023-05-19T09:06:08.853Z,102048.50
2023-05-19T09:08:38.301Z,102041.91
2023-05-19T09:11:07.355Z,102043.38
2023-05-19T09:13:36.166Z,102042.84
2023-05-19T09:16:05.108Z,102039.34
2023-05-19T09:18:33.813Z,102044.25
2023-05-19T09:21:03.239Z,102043.13
2023-05-19T09:23:34.095Z,102036.94
2023-05-19T09:26:07.521Z,102028.94
2023-05-19T09:28:37.752Z,102034.50
2023-05-19T09:31:07.338Z,102024.97
2023-05-19T09:33:36.406Z,102030.91
2023-05-19T09:36:06.066Z,102018.25
2023-05-19T09:38:34.328Z,102025.50
2023-05-19T09:41:02.808Z,102023.47
2023-05-19T09:43:34.251Z,102023.84
2023-05-19T09:46:05.578Z,102005.81
2023-05-19T09:48:34.554Z,102002.81
2023-05-19T09:51:02.495Z,102003.16
2023-05-19T09:53:32.444Z,102006.84
2023-05-19T09:56:02.275Z,102006.56
2023-05-19T09:58:36.484Z,101998.31
2023-05-19T10:01:05.618Z,101994.34
2023-05-19T10:03:35.131Z,101992.50
2023-05-19T10:06:05.011Z,101992.00
2023-05-19T10:08:34.708Z,101989.09
2023-05-19T10:11:03.474Z,101994.00
2023-05-19T10:13:35.075Z,101986.81
2023-05-19T10:16:03.331Z,101992.50
2023-05-19T10:18:33.950Z,101990.34
2023-05-19T10:21:03.660Z,101991.41
2023-05-19T10:23:31.936Z,101975.25
2023-05-19T10:26:02.404Z,101981.34
2023-05-19T10:28:36.255Z,101971.69
2023-05-19T10:31:07.901Z,101980.19
2023-05-19T10:33:48.396Z,101964.00
2023-05-19T10:36:35.443Z,101974.09
2023-05-19T10:39:08.109Z,101957.06
2023-05-19T10:41:43.986Z,101958.94
2023-05-19T10:44:23.947Z,101949.63
2023-05-19T10:46:54.207Z,101959.84
2023-05-19T10:49:24.121Z,101946.22
2023-05-19T10:51:53.626Z,101951.16
2023-05-19T10:54:41.253Z,101943.09
2023-05-19T10:57:09.942Z,101943.84
2023-05-19T10:59:39.414Z,101939.63
2023-05-19T11:02:09.311Z,101935.47
2023-05-19T11:04:49.515Z,101934.69
2023-05-19T11:07:20.945Z,101934.41
2023-05-19T11:09:52.146Z,101927.13
2023-05-19T11:12:25.106Z,101912.03
2023-05-19T11:14:56.140Z,101922.84
2023-05-19T11:17:27.442Z,101935.03
2023-05-19T11:19:56.838Z,101935.81
2023-05-19T11:22:26.692Z,101937.34
2023-05-19T11:24:56.583Z,101934.25
2023-05-19T11:27:27.698Z,101935.88
2023-05-19T11:29:59.279Z,101932.63
2023-05-19T11:32:28.537Z,101935.91
2023-05-19T11:34:57.101Z,101929.81
2023-05-19T11:37:25.450Z,101927.84
2023-05-19T11:39:54.344Z,101924.81
2023-05-19T11:42:22.951Z,101921.59
2023-05-19T11:44:51.315Z,101922.44
2023-05-19T11:47:21.738Z,101915.66
2023-05-19T11:49:50.123Z,101920.16
2023-05-19T11:52:19.303Z,101901.75
2023-05-19T11:54:49.580Z,101910.22
2023-05-19T11:57:17.663Z,101904.50
2023-05-19T11:59:47.861Z,101905.78
2023-05-19T12:02:19.157Z,101901.28
2023-05-19T12:04:49.630Z,101905.97
2023-05-19T12:07:22.906Z,101908.50
2023-05-19T12:09:52.014Z,101917.16
2023-05-19T12:12:21.927Z,101914.16
2023-05-19T12:14:51.784Z,101897.72
2023-05-19T12:17:21.121Z,101896.44
2023-05-19T12:19:51.828Z,101891.50
2023-05-19T12:22:20.339Z,101896.66
2023-05-19T12:24:49.080Z,101893.56
2023-05-19T12:27:20.108Z,101901.22
2023-05-19T12:29:52.728Z,101889.75
2023-05-19T12:32:24.724Z,101892.00
2023-05-19T12:34:58.687Z,101887.09
2023-05-19T12:37:30.248Z,101888.72
2023-05-19T12:39:58.477Z,101894.91
2023-05-19T12:42:31.226Z,101883.34
2023-05-19T12:45:02.965Z,101879.06
2023-05-19T12:47:35.224Z,101885.56
2023-05-19T12:50:06.229Z,101880.47
2023-05-19T12:52:35.699Z,101886.63
2023-05-19T12:55:06.935Z,101882.63
2023-05-19T12:57:36.714Z,101885.97
2023-05-19T13:00:07.812Z,101883.78
2023-05-19T13:02:36.856Z,101871.72
2023-05-19T13:05:06.688Z,101887.25
2023-05-19T13:07:35.713Z,101879.03
2023-05-19T13:10:04.162Z,101877.06
2023-05-19T13:12:32.130Z,101878.34
2023-05-19T13:15:00.693Z,101863.59
2023-05-19T13:17:28.656Z,101863.13
2023-05-19T13:19:56.895Z,101864.97
2023-05-19T13:22:39.296Z,101866.81
2023-05-19T13:25:12.543Z,101863.44
2023-05-19T13:31:02.711Z,101858.66
2023-05-19T13:33:31.828Z,101865.66
2023-05-19T13:36:16.598Z,101865.81
2023-05-19T13:38:46.969Z,101860.31
2023-05-19T13:41:16.033Z,101871.63
2023-05-19T13:43:44.098Z,101865.34
2023-05-19T13:46:12.365Z,101862.53
2023-05-19T13:48:40.371Z,101868.72
2023-05-19T13:51:08.402Z,101861.75
2023-05-19T13:53:36.429Z,101841.16
2023-05-19T13:56:06.506Z,101849.25
2023-05-19T13:58:34.697Z,101862.69
2023-05-19T14:01:02.839Z,101864.28
2023-05-19T14:03:30.991Z,101859.75
2023-05-19T14:05:59.012Z,101858.16
2023-05-19T14:08:27.124Z,101846.09
2023-05-19T14:10:56.218Z,101844.69
2023-05-19T14:13:32.981Z,101838.63
2023-05-19T14:16:03.508Z,101838.97
2023-05-19T14:18:32.450Z,101833.72
2023-05-19T14:21:00.316Z,101829.81
2023-05-19T14:23:30.188Z,101821.78
2023-05-19T14:25:58.195Z,101820.59
2023-05-19T14:28:27.568Z,101815.34
2023-05-19T14:30:55.598Z,101819.63
2023-05-19T14:33:23.456Z,101823.53
2023-05-19T14:35:51.426Z,101820.50
2023-05-19T14:38:19.574Z,101829.66
2023-05-19T14:40:48.514Z,101825.03
2023-05-19T14:43:16.799Z,101831.66
2023-05-19T14:45:46.405Z,101829.31
2023-05-19T14:48:14.515Z,101822.97
2023-05-19T14:50:42.916Z,101818.66
2023-05-19T14:53:11.018Z,101823.03
2023-05-19T14:55:38.962Z,101822.00
2023-05-19T14:58:15.995Z,101815.38
2023-05-19T15:00:58.376Z,101809.69
2023-05-19T15:03:26.936Z,101808.13
2023-05-19T15:05:55.075Z,101813.63
2023-05-19T15:08:23.460Z,101807.00
2023-05-19T15:10:51.905Z,101803.88
2023-05-19T15:13:21.441Z,101804.59
2023-05-19T15:15:49.498Z,101804.75
2023-05-19T15:18:18.940Z,101806.75
2023-05-19T15:20:47.489Z,101806.22
2023-05-19T15:23:15.458Z,101800.19
2023-05-19T15:25:45.459Z,101804.66
2023-05-19T15:28:13.712Z,101821.75
2023-05-19T15:30:43.037Z,101828.34
2023-05-19T15:33:11.725Z,101818.75
2023-05-19T15:35:41.082Z,101824.66
2023-05-19T15:38:09.111Z,101821.09
2023-05-19T15:40:37.241Z,101825.56
2023-05-19T15:43:05.490Z,101833.75
2023-05-19T15:45:33.478Z,101825.88
2023-05-19T15:48:01.724Z,101817.00
2023-05-19T15:50:30.368Z,101817.63
2023-05-19T15:52:59.805Z,101820.69
2023-05-19T15:55:27.842Z,101820.59
2023-05-19T15:57:55.849Z,101823.06
2023-05-19T16:00:23.853Z,101826.72
2023-05-19T16:02:51.876Z,101827.44
2023-05-19T16:05:20.209Z,101820.16
2023-05-19T16:07:48.098Z,101821.03
2023-05-19T16:10:17.522Z,101812.22
2023-05-19T16:12:45.812Z,101797.09
2023-05-19T16:15:13.827Z,101803.19
2023-05-19T16:17:41.788Z,101801.59
2023-05-19T16:20:11.119Z,101790.69
2023-05-19T16:22:39.062Z,101793.69
2023-05-19T16:25:08.568Z,101799.38
2023-05-19T16:27:38.113Z,101801.50
2023-05-19T16:30:07.429Z,101791.00
2023-05-19T16:32:35.434Z,101785.38
2023-05-19T16:35:03.375Z,101784.56
2023-05-19T16:37:31.543Z,101786.84
2023-05-19T16:39:59.808Z,101791.84
2023-05-19T16:42:28.307Z,101790.22
2023-05-19T16:44:57.674Z,101790.97
2023-05-19T16:47:25.528Z,101795.53
2023-05-19T16:49:53.450Z,101795.25
2023-05-19T16:52:21.292Z,101782.94
2023-05-19T16:54:49.260Z,101795.09
2023-05-19T16:57:17.159Z,101796.13
2023-05-19T16:59:45.196Z,101793.78
2023-05-19T17:02:14.600Z,101800.28
2023-05-19T17:04:42.489Z,101801.47
2023-05-19T17:07:15.617Z,101794.47
2023-05-19T17:09:43.966Z,101802.97
2023-05-19T17:12:12.159Z,101799.59
2023-05-19T17:14:42.370Z,101789.41
2023-05-19T17:17:10.603Z,101794.00
2023-05-19T17:19:40.127Z,101797.50
2023-05-19T17:22:07.942Z,101798.25
2023-05-19T17:24:35.889Z,101798.31
2023-05-19T17:27:04.076Z,101794.13
2023-05-19T17:29:32.055Z,101790.59
2023-05-19T17:32:00.116Z,101796.81
2023-05-19T17:34:28.204Z,101796.00
2023-05-19T17:36:57.495Z,101796.41
2023-05-19T17:39:25.935Z,101802.53
2023-05-19T17:41:53.910Z,101799.47
2023-05-19T17:44:21.866Z,101797.25
2023-05-19T17:46:49.930Z,101793.59
2023-05-19T17:49:17.852Z,101797.19
2023-05-19T17:51:46.265Z,101792.66
2023-05-19T17:54:16.218Z,101793.25
2023-05-19T17:56:45.548Z,101791.88
2023-05-19T17:59:13.947Z,101799.13
2023-05-19T18:01:42.366Z,101802.09
2023-05-19T18:04:11.785Z,101804.63
2023-05-19T18:06:44.832Z,101800.06
2023-05-19T18:09:18.719Z,101792.28
2023-05-19T18:11:46.891Z,101789.19
2023-05-19T18:14:14.939Z,101788.91
2023-05-19T18:16:43.069Z,101783.94
2023-05-19T18:19:10.922Z,101788.69
2023-05-19T18:21:39.052Z,101793.31
2023-05-19T18:24:08.255Z,101780.72
2023-05-19T18:26:41.725Z,101784.47
2023-05-19T18:29:10.899Z,101780.72
2023-05-19T18:31:39.148Z,101791.53
2023-05-19T18:34:07.632Z,101799.09
2023-05-19T18:36:36.301Z,101796.47
2023-05-19T18:39:04.726Z,101793.09
2023-05-19T18:41:32.906Z,101793.34
2023-05-19T18:44:02.146Z,101798.22
2023-05-19T18:46:30.264Z,101797.53
2023-05-19T18:48:58.469Z,101798.94
2023-05-19T18:51:26.860Z,101802.66
2023-05-19T18:53:55.020Z,101808.88
2023-05-19T18:56:26.406Z,101805.63
2023-05-19T18:58:56.208Z,101799.66
2023-05-19T19:01:26.057Z,101802.31
2023-05-19T19:03:54.058Z,101805.66
2023-05-19T19:06:23.205Z,101818.31
2023-05-19T19:08:51.317Z,101811.38
2023-05-19T19:11:19.336Z,101808.06
2023-05-19T19:13:51.000Z,101811.88
2023-05-19T19:16:18.937Z,101815.94
2023-05-19T19:18:48.496Z,101812.72
2023-05-19T19:21:16.450Z,101810.81
2023-05-19T19:23:44.721Z,101824.69
2023-05-19T19:26:13.093Z,101827.47
2023-05-19T19:28:41.147Z,101828.00
2023-05-19T19:31:09.325Z,101827.78
2023-05-19T19:33:37.290Z,101827.50
2023-05-19T19:36:07.018Z,101832.09
2023-05-19T19:38:34.974Z,101830.78
2023-05-19T19:41:03.017Z,101837.56
2023-05-19T19:43:31.427Z,101838.88
2023-05-19T19:46:01.286Z,101847.72
2023-05-19T19:48:30.062Z,101842.75
2023-05-19T19:50:58.717Z,101837.66
2023-05-19T19:53:28.210Z,101846.03
2023-05-19T19:55:59.930Z,101844.59
2023-05-19T19:58:29.185Z,101852.97
2023-05-19T20:00:58.440Z,101852.97
2023-05-19T20:03:27.809Z,101856.28
2023-05-19T20:05:57.555Z,101851.91
2023-05-19T20:08:27.205Z,101861.19
2023-05-19T20:10:55.498Z,101853.75
2023-05-19T20:13:23.377Z,101858.66
2023-05-19T20:15:51.326Z,101856.81
2023-05-19T20:18:19.269Z,101852.69
2023-05-19T20:20:47.180Z,101861.31
2023-05-19T20:23:16.209Z,101868.34
2023-05-19T20:26:02.453Z,101869.47
2023-05-19T20:28:35.064Z,101861.81
2023-05-19T20:31:03.069Z,101857.31
2023-05-19T20:33:31.750Z,101864.91
2023-05-19T20:36:02.311Z,101870.09
2023-05-19T20:38:30.204Z,101875.03
2023-05-19T20:40:59.389Z,101875.41
2023-05-19T20:43:27.607Z,101879.97
2023-05-19T20:45:55.532Z,101883.59
2023-05-19T20:48:23.577Z,101877.91
2023-05-19T20:50:51.921Z,101876.78
2023-05-19T20:53:21.469Z,101876.63
2023-05-19T20:55:49.628Z,101883.94
2023-05-19T20:58:19.107Z,101883.69
2023-05-19T21:00:48.611Z,101877.06
2023-05-19T21:03:16.709Z,101890.44
2023-05-19T21:05:44.563Z,101882.84
2023-05-19T21:08:12.915Z,101884.13
2023-05-19T21:10:40.971Z,101883.94
2023-05-19T21:13:08.954Z,101887.38
2023-05-19T21:15:38.313Z,101885.63
2023-05-19T21:18:06.250Z,101877.94
2023-05-19T21:20:34.731Z,101881.72
2023-05-19T21:23:02.789Z,101878.56
2023-05-19T21:25:31.026Z,101880.13
2023-05-19T21:27:59.356Z,101882.50
2023-05-19T21:30:27.271Z,101887.91
2023-05-19T21:32:56.947Z,101887.53
2023-05-19T21:35:25.306Z,101896.00
2023-05-19T21:37:53.493Z,101902.69
2023-05-19T21:40:21.444Z,101901.25
2023-05-19T21:42:49.333Z,101904.28
2023-05-19T21:45:17.319Z,101903.56
2023-05-19T21:47:46.333Z,101908.72
2023-05-19T21:50:17.446Z,101913.47
2023-05-19T21:52:52.044Z,101912.22
2023-05-19T21:55:22.102Z,101902.75
2023-05-19T21:57:51.715Z,101901.81
2023-05-19T22:00:21.528Z,101909.25
2023-05-19T22:02:50.588Z,101917.13
2023-05-19T22:05:21.351Z,101908.38
2023-05-19T22:07:49.646Z,101908.53
2023-05-19T22:10:17.978Z,101907.03
2023-05-19T22:12:46.134Z,101908.47
2023-05-19T22:15:15.798Z,101913.19
2023-05-19T22:17:44.189Z,101903.56
2023-05-19T22:20:13.105Z,101905.97
2023-05-19T22:22:42.482Z,101906.34
2023-05-19T22:25:10.991Z,101908.88
2023-05-19T22:27:39.163Z,101903.34
2023-05-19T22:30:09.203Z,101903.38
2023-05-19T22:32:40.200Z,101901.09
2023-05-19T22:35:09.026Z,101900.44
2023-05-19T22:37:37.145Z,101902.94
2023-05-19T22:40:07.951Z,101911.94
2023-05-19T22:42:35.860Z,101911.31
2023-05-19T22:45:04.232Z,101910.56
2023-05-19T22:47:32.244Z,101909.81
2023-05-19T22:50:00.240Z,101913.47
2023-05-19T22:52:28.237Z,101919.56
2023-05-19T22:54:56.365Z,101919.75
2023-05-19T22:57:25.664Z,101915.44
2023-05-19T22:59:53.656Z,101922.22
2023-05-19T23:02:21.609Z,101924.81
2023-05-19T23:04:49.640Z,101935.09
2023-05-19T23:07:17.738Z,101930.00
2023-05-19T23:09:45.768Z,101929.88
2023-05-19T23:12:13.808Z,101918.91
2023-05-19T23:14:43.546Z,101933.53
2023-05-19T23:17:11.644Z,101924.66
2023-05-19T23:19:40.272Z,101931.22
2023-05-19T23:22:08.889Z,101927.63
2023-05-19T23:24:37.806Z,101929.75
2023-05-19T23:27:06.258Z,101945.97
2023-05-19T23:29:34.186Z,101936.78
2023-05-19T23:32:03.512Z,101941.50
2023-05-19T23:34:31.488Z,101941.75
2023-05-19T23:36:59.603Z,101934.34
2023-05-19T23:39:27.623Z,101938.78
2023-05-19T23:41:56.389Z,101944.97
2023-05-19T23:44:24.605Z,101943.19
2023-05-19T23:46:52.804Z,101949.63
2023-05-19T23:49:22.237Z,101941.16
2023-05-19T23:51:50.074Z,101942.91
2023-05-19T23:54:18.021Z,101935.22
2023-05-19T23:56:46.127Z,101941.03
2023-05-19T23:59:14.155Z,101935.03
